createdAt,value
2023-02-17T00:01:16.799Z,19.08
2023-02-17T00:03:48.194Z,18.92
2023-02-17T00:06:17.702Z,18.92
2023-02-17T00:08:46.747Z,18.77
2023-02-17T00:11:15.460Z,19.20
2023-02-17T00:13:44.137Z,19.27
2023-02-17T00:16:14.723Z,20.17
2023-02-17T00:18:42.858Z,19.10
2023-02-17T00:21:17.370Z,19.40
2023-02-17T00:23:46.577Z,19.75
2023-02-17T00:26:14.592Z,20.40
2023-02-17T00:28:44.954Z,19.10
2023-02-17T00:31:16.408Z,20.15
2023-02-17T00:33:44.418Z,19.75
2023-02-17T00:36:13.892Z,20.55
2023-02-17T00:38:46.710Z,18.90
2023-02-17T00:41:16.320Z,18.50
2023-02-17T00:43:44.298Z,17.80
2023-02-17T00:46:12.474Z,18.30
2023-02-17T00:48:40.383Z,19.48
2023-02-17T00:51:08.350Z,17.27
2023-02-17T00:53:36.601Z,19.08
2023-02-17T00:56:06.860Z,18.23
2023-02-17T00:58:34.945Z,18.00
2023-02-17T01:01:02.929Z,16.90
2023-02-17T01:03:34.749Z,17.33
2023-02-17T01:06:08.677Z,16.08
2023-02-17T01:08:36.779Z,16.27
2023-02-17T01:11:07.297Z,16.60
2023-02-17T01:13:35.193Z,15.82
2023-02-17T01:16:03.167Z,16.23
2023-02-17T01:18:31.126Z,16.73
2023-02-17T01:20:59.204Z,15.98
2023-02-17T01:23:27.000Z,17.48
2023-02-17T01:25:57.199Z,17.13
2023-02-17T01:28:26.490Z,19.02
2023-02-17T01:30:57.092Z,19.02
2023-02-17T01:33:24.967Z,18.40
2023-02-17T01:35:52.866Z,19.75
2023-02-17T01:38:20.706Z,20.45
2023-02-17T01:40:51.143Z,20.17
2023-02-17T01:43:22.216Z,20.25
2023-02-17T01:45:54.465Z,20.75
2023-02-17T01:48:24.025Z,20.67
2023-02-17T01:50:56.365Z,21.00
2023-02-17T01:53:29.738Z,21.45
2023-02-17T01:55:58.084Z,21.65
2023-02-17T01:58:26.640Z,21.80
2023-02-17T02:00:59.703Z,22.45
2023-02-17T02:03:29.323Z,21.65
2023-02-17T02:05:57.494Z,22.67
2023-02-17T02:08:29.589Z,23.15
2023-02-17T02:10:57.456Z,23.55
2023-02-17T02:13:25.297Z,24.02
2023-02-17T02:15:59.183Z,22.80
2023-02-17T02:18:39.063Z,23.33
2023-02-17T02:21:52.807Z,24.63
2023-02-17T02:24:27.315Z,20.75
2023-02-17T02:27:31.264Z,22.02
2023-02-17T02:30:37.582Z,21.73
2023-02-17T02:33:10.757Z,21.63
2023-02-17T02:35:47.013Z,22.05
2023-02-17T02:38:18.975Z,22.75
2023-02-17T02:40:51.528Z,23.40
2023-02-17T02:43:19.564Z,22.70
2023-02-17T02:45:48.357Z,22.90
2023-02-17T02:48:17.654Z,23.15
2023-02-17T02:50:58.123Z,23.05
2023-02-17T02:53:43.089Z,23.27
2023-02-17T02:56:16.487Z,21.52
2023-02-17T02:58:49.129Z,20.60
2023-02-17T03:01:28.254Z,21.23
2023-02-17T03:04:04.332Z,20.38
2023-02-17T03:06:37.891Z,19.50
2023-02-17T03:09:08.210Z,19.33
2023-02-17T03:11:36.383Z,19.15
2023-02-17T03:14:07.241Z,19.20
2023-02-17T03:16:37.360Z,19.45
2023-02-17T03:19:07.515Z,17.88
2023-02-17T03:21:39.760Z,20.10
2023-02-17T03:24:08.778Z,18.92
2023-02-17T03:26:37.073Z,17.80
2023-02-17T03:29:04.951Z,18.63
2023-02-17T03:31:33.427Z,18.27
2023-02-17T03:34:01.647Z,16.63
2023-02-17T03:36:30.990Z,18.55
2023-02-17T03:38:59.363Z,16.50
2023-02-17T03:41:28.128Z,17.75
2023-02-17T03:43:56.155Z,17.30
2023-02-17T03:46:23.932Z,18.13
2023-02-17T03:48:51.786Z,17.58
2023-02-17T03:51:23.087Z,18.13
2023-02-17T03:53:52.847Z,18.27
2023-02-17T03:56:20.962Z,18.58
2023-02-17T03:58:50.072Z,18.27
2023-02-17T04:01:18.148Z,18.30
2023-02-17T04:03:45.917Z,18.00
2023-02-17T04:06:13.845Z,17.10
2023-02-17T04:08:41.949Z,18.23
2023-02-17T04:11:11.965Z,16.85
2023-02-17T04:13:40.249Z,16.98
2023-02-17T04:16:09.603Z,16.38
2023-02-17T04:18:41.089Z,16.77
2023-02-17T04:21:09.456Z,16.10
2023-02-17T04:23:37.788Z,15.80
2023-02-17T04:26:07.018Z,15.60
2023-02-17T04:28:36.697Z,16.05
2023-02-17T04:31:04.890Z,15.52
2023-02-17T04:33:32.764Z,15.90
2023-02-17T04:36:00.824Z,16.38
2023-02-17T04:38:29.294Z,14.73
2023-02-17T04:40:58.510Z,16.17
2023-02-17T04:43:28.404Z,16.92
2023-02-17T04:45:58.170Z,15.50
2023-02-17T04:48:27.061Z,15.68
2023-02-17T04:50:55.367Z,15.32
2023-02-17T04:53:24.248Z,16.23
2023-02-17T04:55:54.395Z,16.55
2023-02-17T04:58:22.812Z,15.65
2023-02-17T05:00:51.624Z,16.17
2023-02-17T05:03:21.094Z,16.40
2023-02-17T05:05:49.971Z,16.13
2023-02-17T05:08:17.848Z,16.38
2023-02-17T05:10:46.229Z,16.30
2023-02-17T05:13:14.116Z,16.27
2023-02-17T05:15:44.161Z,16.17
2023-02-17T05:18:12.179Z,17.63
2023-02-17T05:20:42.051Z,16.40
2023-02-17T05:23:09.841Z,18.17
2023-02-17T05:25:37.640Z,15.73
2023-02-17T05:28:05.458Z,17.40
2023-02-17T05:30:33.519Z,17.75
2023-02-17T05:33:02.143Z,17.58
2023-02-17T05:35:29.932Z,17.67
2023-02-17T05:37:59.326Z,18.27
2023-02-17T05:40:27.169Z,17.52
2023-02-17T05:42:55.209Z,19.05
2023-02-17T05:45:23.253Z,17.98
2023-02-17T05:47:51.082Z,18.17
2023-02-17T05:50:19.193Z,19.10
2023-02-17T05:52:50.302Z,18.48
2023-02-17T05:55:19.616Z,18.23
2023-02-17T05:57:47.439Z,17.17
2023-02-17T06:00:16.697Z,16.50
2023-02-17T06:02:44.650Z,15.93
2023-02-17T06:05:13.194Z,16.05
2023-02-17T06:07:40.895Z,15.73
2023-02-17T06:10:10.268Z,14.73
2023-02-17T06:12:39.403Z,14.43
2023-02-17T06:15:08.180Z,14.38
2023-02-17T06:17:37.235Z,13.85
2023-02-17T06:20:08.184Z,13.45
2023-02-17T06:22:37.137Z,15.40
2023-02-17T06:25:05.501Z,15.23
2023-02-17T06:27:34.724Z,14.85
2023-02-17T06:30:04.331Z,16.50
2023-02-17T06:32:32.493Z,14.65
2023-02-17T06:35:00.476Z,14.75
2023-02-17T06:37:28.589Z,15.60
2023-02-17T06:39:56.576Z,14.98
2023-02-17T06:42:24.294Z,15.30
2023-02-17T06:44:53.212Z,14.85
2023-02-17T06:47:22.323Z,15.20
2023-02-17T06:49:50.072Z,15.13
2023-02-17T06:52:18.166Z,14.95
2023-02-17T06:54:47.540Z,14.93
2023-02-17T06:57:15.866Z,14.43
2023-02-17T06:59:44.033Z,14.10
2023-02-17T07:02:13.039Z,14.15
2023-02-17T07:04:43.040Z,14.18
2023-02-17T07:07:11.618Z,14.43
2023-02-17T07:09:40.211Z,14.05
2023-02-17T07:12:08.997Z,13.68
2023-02-17T07:14:37.406Z,15.93
2023-02-17T07:17:05.726Z,14.20
2023-02-17T07:19:34.034Z,14.43
2023-02-17T07:22:05.797Z,14.30
2023-02-17T07:24:34.049Z,13.73
2023-02-17T07:27:02.051Z,14.30
2023-02-17T07:29:30.347Z,14.35
2023-02-17T07:31:58.254Z,13.90
2023-02-17T07:34:26.797Z,13.45
2023-02-17T07:36:54.927Z,13.73
2023-02-17T07:39:24.151Z,13.25
2023-02-17T07:41:52.423Z,13.02
2023-02-17T07:44:25.519Z,13.32
2023-02-17T07:46:53.367Z,13.60
2023-02-17T07:49:21.322Z,13.52
2023-02-17T07:51:49.336Z,13.00
2023-02-17T07:54:17.403Z,12.35
2023-02-17T07:56:49.394Z,12.27
2023-02-17T07:59:17.263Z,12.45
2023-02-17T08:01:46.158Z,12.75
2023-02-17T08:04:14.083Z,12.45
2023-02-17T08:06:41.980Z,12.00
2023-02-17T08:09:29.162Z,11.93
2023-02-17T08:12:16.012Z,11.25
2023-02-17T08:14:43.800Z,11.80
2023-02-17T08:17:11.644Z,10.80
2023-02-17T08:19:48.004Z,11.77
2023-02-17T08:22:16.861Z,11.13
2023-02-17T08:24:44.647Z,12.18
2023-02-17T08:27:14.825Z,11.15
2023-02-17T08:29:43.163Z,11.73
2023-02-17T08:32:11.644Z,11.38
2023-02-17T08:34:40.673Z,11.50
2023-02-17T08:37:08.899Z,10.60
2023-02-17T08:39:39.482Z,10.80
2023-02-17T08:42:07.290Z,11.52
2023-02-17T08:44:37.898Z,11.48
2023-02-17T08:47:06.977Z,11.32
2023-02-17T08:49:35.080Z,11.70
2023-02-17T08:52:03.341Z,11.20
2023-02-17T08:54:32.808Z,10.35
2023-02-17T08:57:01.129Z,10.80
2023-02-17T08:59:29.166Z,11.25
2023-02-17T09:01:58.493Z,10.07
2023-02-17T09:04:26.956Z,10.00
2023-02-17T09:06:57.296Z,10.57
2023-02-17T09:09:27.902Z,9.77
2023-02-17T09:11:56.863Z,8.80
2023-02-17T09:14:26.519Z,9.23
2023-02-17T09:16:55.597Z,9.20
2023-02-17T09:19:25.497Z,8.80
2023-02-17T09:21:53.342Z,8.48
2023-02-17T09:24:21.295Z,7.60
2023-02-17T09:26:49.125Z,8.20
2023-02-17T09:29:16.945Z,7.95
2023-02-17T09:31:46.146Z,8.23
2023-02-17T09:34:14.221Z,7.47
2023-02-17T09:36:43.881Z,7.55
2023-02-17T09:39:14.214Z,7.43
2023-02-17T09:41:44.969Z,7.50
2023-02-17T09:44:18.796Z,7.72
2023-02-17T09:47:01.346Z,7.03
2023-02-17T09:49:34.020Z,7.53
2023-02-17T09:52:08.170Z,7.50
2023-02-17T09:57:05.373Z,6.80
2023-02-17T09:59:36.865Z,6.88
2023-02-17T10:02:08.596Z,7.07
2023-02-17T10:04:39.198Z,6.47
2023-02-17T10:07:11.260Z,6.80
2023-02-17T10:09:45.528Z,6.95
2023-02-17T10:12:18.672Z,6.65
2023-02-17T10:14:50.409Z,6.20
2023-02-17T10:17:22.505Z,6.22
2023-02-17T10:19:54.397Z,6.00
2023-02-17T10:22:25.105Z,6.18
2023-02-17T10:24:52.977Z,6.80
2023-02-17T10:27:38.507Z,6.82
2023-02-17T10:30:20.418Z,6.10
2023-02-17T10:32:55.676Z,7.50
2023-02-17T10:35:26.486Z,6.63
2023-02-17T10:38:00.049Z,7.15
2023-02-17T10:40:30.461Z,6.03
2023-02-17T10:42:59.954Z,6.28
2023-02-17T10:45:31.793Z,6.30
2023-02-17T10:48:03.787Z,5.72
2023-02-17T10:50:32.184Z,5.88
2023-02-17T10:53:01.711Z,6.55
2023-02-17T10:55:39.137Z,5.75
2023-02-17T10:58:12.179Z,6.53
2023-02-17T11:00:40.339Z,6.00
2023-02-17T11:03:08.168Z,5.85
2023-02-17T11:05:37.237Z,6.55
2023-02-17T11:08:08.935Z,6.13
2023-02-17T11:10:39.068Z,6.03
2023-02-17T11:13:31.406Z,6.10
2023-02-17T11:15:59.562Z,6.30
2023-02-17T11:18:29.887Z,6.03
2023-02-17T11:21:03.193Z,6.05
2023-02-17T11:23:35.660Z,6.20
2023-02-17T11:26:10.740Z,6.95
2023-02-17T11:28:38.744Z,6.50
2023-02-17T11:31:07.480Z,6.80
2023-02-17T11:33:37.104Z,7.68
2023-02-17T11:36:07.615Z,7.50
2023-02-17T11:38:44.798Z,6.97
2023-02-17T11:41:12.628Z,7.85
2023-02-17T11:43:40.854Z,7.60
2023-02-17T11:46:23.745Z,7.28
2023-02-17T11:49:12.494Z,7.60
2023-02-17T11:51:50.250Z,7.85
2023-02-17T11:54:23.659Z,7.97
2023-02-17T11:57:01.411Z,8.00
2023-02-17T11:59:38.156Z,8.50
2023-02-17T12:02:18.542Z,8.60
2023-02-17T12:05:06.739Z,8.40
2023-02-17T12:07:55.811Z,9.23
2023-02-17T12:10:51.524Z,8.13
2023-02-17T12:13:30.562Z,8.60
2023-02-17T12:16:09.941Z,8.63
2023-02-17T12:18:48.326Z,8.77
2023-02-17T12:21:21.607Z,8.35
2023-02-17T12:23:59.714Z,8.70
2023-02-17T12:26:36.784Z,8.13
2023-02-17T12:29:18.077Z,8.18
2023-02-17T12:31:57.839Z,8.23
2023-02-17T12:34:31.480Z,8.02
2023-02-17T12:37:00.520Z,7.57
2023-02-17T12:39:32.105Z,7.75
2023-02-17T12:42:04.040Z,7.38
2023-02-17T12:44:34.716Z,6.35
2023-02-17T12:47:06.345Z,6.50
2023-02-17T12:49:39.072Z,6.35
2023-02-17T12:52:09.970Z,6.35
2023-02-17T12:54:43.154Z,6.57
2023-02-17T12:57:16.763Z,6.53
2023-02-17T12:59:45.859Z,6.18
2023-02-17T13:02:15.110Z,5.65
2023-02-17T13:04:44.041Z,6.50
2023-02-17T13:07:24.542Z,6.97
2023-02-17T13:09:52.633Z,6.35
2023-02-17T13:12:35.883Z,6.00
2023-02-17T13:15:05.500Z,5.90
2023-02-17T13:17:38.299Z,6.20
2023-02-17T13:20:24.927Z,6.20
2023-02-17T13:23:05.460Z,6.13
2023-02-17T13:25:37.721Z,6.43
2023-02-17T13:28:20.428Z,6.05
2023-02-17T13:30:52.273Z,6.45
2023-02-17T13:33:31.296Z,6.00
2023-02-17T13:35:59.050Z,6.47
2023-02-17T13:38:29.897Z,6.45
2023-02-17T13:41:01.110Z,6.53
2023-02-17T13:43:31.908Z,6.68
2023-02-17T13:46:00.989Z,6.32
2023-02-17T13:48:32.146Z,5.78
2023-02-17T13:51:02.188Z,6.00
2023-02-17T13:53:37.261Z,6.32
2023-02-17T13:56:07.463Z,6.40
2023-02-17T13:58:41.224Z,6.57
2023-02-17T14:01:16.075Z,6.03
2023-02-17T14:03:47.490Z,6.45
2023-02-17T14:06:25.801Z,5.68
2023-02-17T14:08:54.174Z,5.72
2023-02-17T14:11:24.480Z,6.15
2023-02-17T14:13:55.602Z,6.38
2023-02-17T14:16:32.631Z,6.22
2023-02-17T14:19:04.590Z,5.45
2023-02-17T14:21:32.904Z,5.78
2023-02-17T14:24:01.129Z,5.95
2023-02-17T14:26:32.475Z,5.57
2023-02-17T14:29:02.939Z,5.32
2023-02-17T14:31:30.981Z,6.32
2023-02-17T14:34:01.085Z,6.30
2023-02-17T14:36:39.474Z,6.13
2023-02-17T14:39:08.779Z,5.28
2023-02-17T14:41:36.726Z,5.00
2023-02-17T14:44:06.588Z,5.53
2023-02-17T14:46:35.092Z,5.85
2023-02-17T14:49:03.005Z,5.47
2023-02-17T14:51:35.893Z,5.40
2023-02-17T14:54:05.091Z,5.78
2023-02-17T14:56:34.952Z,5.88
2023-02-17T14:59:04.033Z,5.80
2023-02-17T15:01:35.678Z,6.03
2023-02-17T15:04:03.544Z,5.85
2023-02-17T15:06:41.077Z,5.90
2023-02-17T15:09:12.801Z,6.80
2023-02-17T15:11:42.456Z,6.60
2023-02-17T15:14:17.744Z,6.43
2023-02-17T15:16:47.691Z,7.25
2023-02-17T15:19:17.955Z,6.40
2023-02-17T15:21:47.623Z,6.28
2023-02-17T15:24:17.060Z,6.65
2023-02-17T15:26:44.986Z,6.63
2023-02-17T15:29:17.369Z,6.20
2023-02-17T15:31:47.137Z,6.45
2023-02-17T15:34:16.937Z,6.03
2023-02-17T15:36:44.911Z,6.22
2023-02-17T15:39:13.436Z,5.88
2023-02-17T15:41:41.565Z,7.00
2023-02-17T15:44:13.946Z,6.70
2023-02-17T15:46:44.355Z,6.40
2023-02-17T15:49:14.727Z,6.68
2023-02-17T15:51:42.592Z,5.78
2023-02-17T15:54:10.471Z,5.80
2023-02-17T15:56:43.295Z,6.63
2023-02-17T15:59:15.910Z,6.90
2023-02-17T16:01:46.300Z,8.03
2023-02-17T16:04:16.388Z,6.85
2023-02-17T16:06:44.321Z,7.05
2023-02-17T16:09:12.481Z,6.68
2023-02-17T16:11:47.569Z,7.70
2023-02-17T16:14:24.060Z,7.05
2023-02-17T16:16:52.037Z,8.32
2023-02-17T16:19:22.023Z,7.32
2023-02-17T16:21:50.194Z,7.57
2023-02-17T16:24:20.225Z,7.15
2023-02-17T16:26:49.724Z,8.00
2023-02-17T16:29:19.613Z,7.50
2023-02-17T16:31:48.053Z,7.68
2023-02-17T16:34:18.056Z,7.78
2023-02-17T16:36:47.596Z,7.15
2023-02-17T16:39:16.628Z,7.97
2023-02-17T16:41:48.702Z,7.93
2023-02-17T16:44:17.469Z,8.23
2023-02-17T16:46:48.291Z,7.63
2023-02-17T16:49:22.932Z,7.72
2023-02-17T16:51:53.562Z,7.65
2023-02-17T16:54:22.433Z,7.68
2023-02-17T16:56:51.953Z,7.57
2023-02-17T16:59:22.337Z,7.20
2023-02-17T17:01:53.195Z,7.38
2023-02-17T17:04:22.933Z,7.88
2023-02-17T17:06:53.224Z,7.53
2023-02-17T17:09:23.585Z,7.47
2023-02-17T17:11:52.025Z,7.72
2023-02-17T17:14:21.659Z,7.32
2023-02-17T17:16:52.836Z,7.05
2023-02-17T17:19:23.504Z,6.63
2023-02-17T17:21:53.003Z,7.28
2023-02-17T17:24:21.794Z,7.03
2023-02-17T17:26:51.624Z,7.97
2023-02-17T17:29:21.193Z,7.60
2023-02-17T17:31:49.337Z,8.27
2023-02-17T17:34:17.304Z,8.63
2023-02-17T17:36:47.907Z,8.30
2023-02-17T17:39:18.837Z,9.50
2023-02-17T17:41:46.706Z,9.35
2023-02-17T17:44:15.123Z,9.65
2023-02-17T17:46:43.404Z,9.57
2023-02-17T17:49:13.546Z,10.40
2023-02-17T17:51:41.833Z,8.90
2023-02-17T17:54:09.989Z,11.18
2023-02-17T17:56:42.556Z,11.10
2023-02-17T17:59:11.024Z,9.75
2023-02-17T18:01:38.835Z,11.50
2023-02-17T18:04:09.521Z,10.75
2023-02-17T18:06:41.037Z,12.80
2023-02-17T18:09:13.306Z,12.20
2023-02-17T18:11:47.190Z,11.25
2023-02-17T18:14:15.802Z,11.60
2023-02-17T18:16:45.724Z,11.07
2023-02-17T18:19:13.716Z,10.02
2023-02-17T18:21:42.102Z,9.38
2023-02-17T18:24:10.048Z,10.32
2023-02-17T18:26:37.844Z,13.32
2023-02-17T18:29:07.205Z,9.55
2023-02-17T18:31:35.849Z,10.40
2023-02-17T18:34:03.967Z,10.70
2023-02-17T18:36:32.332Z,11.02
2023-02-17T18:39:00.630Z,10.88
2023-02-17T18:41:32.248Z,10.98
2023-02-17T18:44:02.220Z,12.55
2023-02-17T18:46:34.006Z,17.50
2023-02-17T18:49:02.284Z,12.85
2023-02-17T18:51:30.117Z,10.43
2023-02-17T18:53:59.591Z,11.82
2023-02-17T18:56:30.386Z,11.48
2023-02-17T18:58:58.896Z,11.00
2023-02-17T19:01:28.701Z,9.90
2023-02-17T19:03:58.831Z,11.23
2023-02-17T19:06:28.618Z,10.02
2023-02-17T19:08:56.915Z,11.18
2023-02-17T19:11:25.321Z,10.88
2023-02-17T19:13:54.098Z,11.30
2023-02-17T19:16:25.536Z,11.32
2023-02-17T19:18:53.799Z,11.75
2023-02-17T19:21:23.379Z,11.63
2023-02-17T19:23:51.779Z,11.85
2023-02-17T19:26:20.738Z,12.70
2023-02-17T19:28:48.738Z,12.20
2023-02-17T19:31:19.240Z,12.15
2023-02-17T19:33:47.810Z,12.60
2023-02-17T19:36:17.651Z,14.52
2023-02-17T19:38:49.917Z,14.15
2023-02-17T19:41:18.732Z,14.32
2023-02-17T19:43:46.633Z,16.05
2023-02-17T19:46:16.020Z,16.70
2023-02-17T19:48:43.757Z,16.27
2023-02-17T19:51:13.783Z,19.02
2023-02-17T19:53:42.999Z,16.58
2023-02-17T19:56:14.025Z,16.48
2023-02-17T19:58:42.694Z,17.40
2023-02-17T20:01:12.268Z,19.45
2023-02-17T20:03:40.623Z,18.10
2023-02-17T20:06:10.674Z,16.70
2023-02-17T20:08:39.923Z,17.92
2023-02-17T20:11:08.873Z,19.58
2023-02-17T20:13:45.571Z,18.33
2023-02-17T20:16:15.761Z,19.00
2023-02-17T20:18:45.624Z,18.02
2023-02-17T20:21:15.364Z,20.45
2023-02-17T20:23:43.424Z,19.58
2023-02-17T20:26:13.301Z,18.75
2023-02-17T20:28:42.869Z,19.52
2023-02-17T20:31:11.466Z,18.50
2023-02-17T20:33:39.985Z,18.85
2023-02-17T20:36:09.571Z,18.52
2023-02-17T20:38:38.380Z,19.05
2023-02-17T20:41:07.288Z,19.05
2023-02-17T20:43:37.849Z,19.05
2023-02-17T20:46:08.026Z,18.25
2023-02-17T20:48:35.929Z,19.15
2023-02-17T20:51:05.746Z,17.60
2023-02-17T20:53:33.794Z,17.25
2023-02-17T20:56:01.714Z,19.02
2023-02-17T20:58:29.799Z,18.02
2023-02-17T21:00:57.698Z,17.85
2023-02-17T21:03:27.039Z,20.13
2023-02-17T21:05:54.706Z,20.15
2023-02-17T21:08:22.824Z,20.50
2023-02-17T21:10:52.918Z,21.27
2023-02-17T21:13:22.770Z,22.58
2023-02-17T21:15:51.016Z,22.17
2023-02-17T21:18:18.865Z,23.48
2023-02-17T21:20:48.172Z,23.30
2023-02-17T21:23:16.008Z,24.48
2023-02-17T21:25:46.103Z,25.60
2023-02-17T21:28:16.635Z,23.88
2023-02-17T21:30:47.238Z,24.48
2023-02-17T21:33:15.102Z,24.52
2023-02-17T21:35:42.884Z,22.65
2023-02-17T21:38:15.552Z,23.30
2023-02-17T21:40:43.873Z,23.20
2023-02-17T21:43:30.361Z,23.63
2023-02-17T21:45:58.302Z,23.50
2023-02-17T21:48:26.080Z,23.63
2023-02-17T21:50:53.860Z,22.90
2023-02-17T21:53:23.148Z,24.27
2023-02-17T21:55:51.146Z,22.92
2023-02-17T21:58:19.069Z,23.95
2023-02-17T22:00:49.509Z,23.80
2023-02-17T22:03:18.323Z,23.50
2023-02-17T22:05:46.638Z,24.08
2023-02-17T22:08:14.672Z,23.33
2023-02-17T22:10:44.925Z,24.33
2023-02-17T22:13:12.875Z,22.70
2023-02-17T22:15:41.476Z,22.73
2023-02-17T22:18:09.385Z,23.13
2023-02-17T22:20:38.009Z,23.60
2023-02-17T22:23:05.848Z,23.98
2023-02-17T22:25:33.912Z,25.48
2023-02-17T22:28:03.015Z,25.80
2023-02-17T22:30:31.004Z,25.23
2023-02-17T22:32:59.096Z,26.50
2023-02-17T22:35:27.662Z,25.40
2023-02-17T22:37:57.625Z,27.77
2023-02-17T22:40:26.861Z,27.25
2023-02-17T22:42:54.985Z,27.10
2023-02-17T22:45:24.373Z,28.63
2023-02-17T22:47:54.856Z,27.85
2023-02-17T22:50:22.719Z,27.90
2023-02-17T22:52:50.625Z,28.88
2023-02-17T22:55:18.572Z,28.23
2023-02-17T22:57:47.391Z,28.35
2023-02-17T23:00:16.718Z,27.90
2023-02-17T23:02:46.320Z,28.40
2023-02-17T23:05:14.438Z,28.10
2023-02-17T23:07:42.301Z,26.92
2023-02-17T23:10:11.591Z,26.98
2023-02-17T23:12:39.486Z,26.67
2023-02-17T23:15:07.913Z,26.48
2023-02-17T23:17:58.368Z,26.02
2023-02-17T23:20:27.612Z,25.38
2023-02-17T23:22:58.302Z,24.85
2023-02-17T23:25:27.300Z,23.90
2023-02-17T23:27:55.720Z,23.77
2023-02-17T23:30:24.352Z,24.67
2023-02-17T23:32:52.215Z,26.13
2023-02-17T23:35:20.199Z,25.02
2023-02-17T23:37:50.829Z,24.98
2023-02-17T23:40:19.459Z,25.70
2023-02-17T23:42:47.455Z,25.98
2023-02-17T23:45:15.243Z,30.05
2023-02-17T23:47:43.215Z,29.05
2023-02-17T23:50:16.169Z,27.90
2023-02-17T23:52:45.047Z,28.35
2023-02-17T23:55:14.310Z,30.15
2023-02-17T23:57:42.220Z,31.33
